This is the latest recevied weather packets stored in our database for station/object KB0OLA. If no packets are shown the sender has not sent any weather packets the latest 10 day(s).
| Time | Temp. | Humidity | Pressure | Rain* | Wind** | Luminosity | Snow |
|---|---|---|---|---|---|---|---|
| 1777631718 | 5.56° C | 48% | 1019 hPa | 0 mm | - | - | - |
| 1777630517 | 5.56° C | 49% | 1018.8 hPa | 0 mm | - | - | - |
| 1777628117 | 7.22° C | 44% | 1018.7 hPa | 0 mm | - | - | - |
| 1777623317 | 10° C | 36% | 1018.5 hPa | 0 mm | - | - | - |
| 1777619717 | 10.56° C | 34% | 1018.2 hPa | 0 mm | - | - | - |
| 1777619117 | 10.56° C | 35% | 1018.2 hPa | 0 mm | - | - | - |
| 1777618537 | 10.56° C | 36% | 1018.2 hPa | 0 mm | - | - | - |
| 1777613118 | 10° C | 37% | 1018.1 hPa | 0 mm | - | - | - |
| 1777611917 | 11.11° C | 36% | 1018.2 hPa | 0 mm | - | - | - |
| 1777610117 | 11.67° C | 36% | 1018.2 hPa | 0 mm | - | - | - |
| 1777609517 | 11.67° C | 36% | 1018.1 hPa | 0 mm | - | - | - |
| 1777607117 | 12.22° C | 36% | 1018 hPa | 0 mm | - | - | - |
| 1777606517 | 12.22° C | 36% | 1017.9 hPa | 0 mm | - | - | - |
| 1777604736 | 12.22° C | 35% | 1017.6 hPa | 0 mm | - | - | - |
| 1777600518 | 13.33° C | 34% | 1017 hPa | 0 mm | - | - | - |
| 1777598718 | 15° C | 32% | 1016.6 hPa | 0 mm | - | - | - |
| 1777597518 | 16.11° C | 29% | 1016.6 hPa | 0 mm | - | - | - |
| 1777587318 | 16.11° C | 31% | 1017.4 hPa | 0 mm | - | - | - |
| 1777581918 | 15.56° C | 35% | 1018.1 hPa | 0 mm | - | - | - |
| 1777580117 | 15.56° C | 33% | 1018.2 hPa | 0 mm | - | - | - |
| 1777579537 | 15° C | 36% | 1018.2 hPa | 0 mm | - | - | - |
| 1777578917 | 14.44° C | 32% | 1018.3 hPa | 0 mm | - | - | - |
| 1777578317 | 15° C | 37% | 1018.3 hPa | 0 mm | - | - | - |
| 1777575917 | 13.89° C | 35% | 1018.8 hPa | 0 mm | - | - | - |
| 1777575317 | 14.44° C | 36% | 1019 hPa | 0 mm | - | - | - |
* Rain latest hour (hover to see other rain measurements)
** Current wind speed in m/s (hover to see current wind gust speed)